Rayong, Thailand

10:01 PM ICT on July 26, 2016 (GMT +0700)
Mae Rumphueng Beach (750m Inland) | | Change Station

Elev 43 ft 12.62 °N, 101.39 °E | Updated 2 seconds ago

Scattered Clouds
Scattered Clouds
84.0 °F
Feels Like 94 °F
N
0.2
Wind Variable Wind from SSW
Gusts 2.5 mph

Today
High -- | Low -- °F
--% Chance of Precip.
Yesterday
High -- | Low -- °F
Precip. -- in
Pressure 29.80 in
Visibility 5.0 miles
Clouds Few 2000 ft
Scattered Clouds 10000 ft
Heat Index 94 °F
Dew Point 77 °F
Humidity 80%
Rainfall 0.72 in
Snow Depth Not available.
5:59 AM 6:42 PM
Waning Gibbous, 54% visible
METAR VTBU 261430Z 26003KT 8000 FEW020CB SCT100 29/24 Q1009 NOSIG
Pressure 29.80 in
Visibility 5.0 miles
Clouds Few 2000 ft
Scattered Clouds 10000 ft
Heat Index 94 °F
Dew Point 77 °F
Humidity 80%
Rainfall 0.72 in
Snow Depth Not available.
5:59 AM 6:42 PM
Waning Gibbous, 54% visible
METAR VTBU 261430Z 26003KT 8000 FEW020CB SCT100 29/24 Q1009 NOSIG

10-Day Weather Forecast

No radar image for this location.
×

Almanac

Astronomy

Jul. 26, 2016 Rise Set
Actual Time
Civil Twilight
Nautical Twilight
Astronomical Twilight
Moon
Length of Visible Light
Length of Day
Tomorrow will be .
, % of the Moon is Illuminated

Today's Extremes

Country Highs Country Lows

Community

WunderPhotos

Upload Photos

1,927,608 photos uploaded!

WunderBlog® & News

Nearby

Air Quality

  Air Quality AQ Index Pollutant
Not available.

Snow Depth

Station Depth Elevation

Earthquake Activity

City Distance Mag. Time & Date
Minimum magnitude displayed is 2.5.

Coastal Water Temperatures

Place Temperature

Stations

Nearby Weather Stations

Station Location Temp. Windchill Dew Point Humidity Wind Precip. Elev Updated Type